createdAt,value
2022-11-20T00:00:52.710Z,94379.47
2022-11-20T00:03:19.675Z,94357.38
2022-11-20T00:05:46.703Z,94374.63
2022-11-20T00:08:13.841Z,94397.28
2022-11-20T00:10:41.476Z,94390.22
2022-11-20T00:13:09.306Z,94388.59
2022-11-20T00:15:36.039Z,94393.06
2022-11-20T00:18:02.923Z,94389.88
2022-11-20T00:20:29.655Z,94374.56
2022-11-20T00:22:56.340Z,94403.22
2022-11-20T00:25:23.026Z,94395.06
2022-11-20T00:27:49.983Z,94352.72
2022-11-20T00:30:16.768Z,94375.22
2022-11-20T00:32:43.553Z,94391.69
2022-11-20T00:35:10.382Z,94343.63
2022-11-20T00:37:37.236Z,94358.94
2022-11-20T00:40:04.305Z,94373.03
2022-11-20T00:42:33.780Z,94366.81
2022-11-20T00:45:00.471Z,94385.91
2022-11-20T00:47:27.225Z,94371.38
2022-11-20T00:49:53.918Z,94363.50
2022-11-20T00:52:20.682Z,94369.44
2022-11-20T00:54:47.343Z,94367.25
2022-11-20T00:57:14.348Z,94392.22
2022-11-20T00:59:41.343Z,94394.47
2022-11-20T01:02:08.203Z,94362.78
2022-11-20T01:04:35.070Z,94346.38
2022-11-20T01:07:01.949Z,94365.09
2022-11-20T01:09:28.636Z,94369.13
2022-11-20T01:11:55.767Z,94349.56
2022-11-20T01:14:22.430Z,94342.22
2022-11-20T01:16:51.581Z,94361.59
2022-11-20T01:19:22.172Z,94341.19
2022-11-20T01:21:54.478Z,94323.66
2022-11-20T01:24:22.834Z,94326.38
2022-11-20T01:26:51.801Z,94322.50
2022-11-20T01:29:24.247Z,94321.50
2022-11-20T01:31:52.513Z,94319.38
2022-11-20T01:34:21.026Z,94305.53
2022-11-20T01:36:48.563Z,94313.16
2022-11-20T01:39:19.098Z,94320.38
2022-11-20T01:42:09.855Z,94312.47
2022-11-20T01:44:57.698Z,94314.19
2022-11-20T01:47:33.807Z,94332.03
2022-11-20T01:50:06.311Z,94319.75
2022-11-20T01:52:42.069Z,94297.81
2022-11-20T01:55:15.740Z,94296.91
2022-11-20T01:57:44.698Z,94301.97
2022-11-20T02:00:14.414Z,94295.63
2022-11-20T02:02:46.183Z,94289.56
2022-11-20T02:05:28.397Z,94311.13
2022-11-20T02:07:58.300Z,94319.97
2022-11-20T02:10:25.479Z,94317.75
2022-11-20T02:13:11.344Z,94310.84
2022-11-20T02:15:38.349Z,94313.97
2022-11-20T02:18:06.630Z,94310.88
2022-11-20T02:20:33.738Z,94333.44
2022-11-20T02:23:14.418Z,94306.47
2022-11-20T02:25:43.884Z,94317.94
2022-11-20T02:28:11.320Z,94331.09
2022-11-20T02:30:38.156Z,94293.38
2022-11-20T02:33:05.015Z,94319.44
2022-11-20T02:35:32.216Z,94329.91
2022-11-20T02:38:02.062Z,94324.31
2022-11-20T02:40:29.454Z,94322.69
2022-11-20T02:42:57.616Z,94327.31
2022-11-20T02:45:25.099Z,94322.88
2022-11-20T02:47:52.839Z,94330.41
2022-11-20T02:50:19.968Z,94318.88
2022-11-20T02:52:47.325Z,94339.25
2022-11-20T02:55:14.065Z,94335.69
2022-11-20T02:57:41.039Z,94347.34
2022-11-20T03:00:10.071Z,94350.69
2022-11-20T03:02:37.055Z,94371.38
2022-11-20T03:05:04.128Z,94351.94
2022-11-20T03:07:31.047Z,94367.09
2022-11-20T03:09:57.788Z,94369.06
2022-11-20T03:12:24.617Z,94362.31
2022-11-20T03:14:53.237Z,94366.09
2022-11-20T03:17:20.386Z,94374.66
2022-11-20T03:19:47.108Z,94368.09
2022-11-20T03:22:14.052Z,94367.81
2022-11-20T03:24:40.738Z,94390.78
2022-11-20T03:27:07.982Z,94372.59
2022-11-20T03:29:36.585Z,94385.78
2022-11-20T03:32:03.536Z,94368.81
2022-11-20T03:34:30.323Z,94384.09
2022-11-20T03:36:57.014Z,94386.84
2022-11-20T03:39:24.079Z,94385.34
2022-11-20T03:41:51.429Z,94396.44
2022-11-20T03:44:18.178Z,94389.94
2022-11-20T03:46:44.877Z,94392.44
2022-11-20T03:49:11.688Z,94398.97
2022-11-20T03:51:38.485Z,94396.00
2022-11-20T03:54:07.991Z,94394.84
2022-11-20T03:56:38.068Z,94391.03
2022-11-20T03:59:05.897Z,94386.22
2022-11-20T04:01:36.405Z,94389.75
2022-11-20T04:04:03.977Z,94382.41
2022-11-20T04:06:35.624Z,94383.56
2022-11-20T04:09:02.835Z,94392.44
2022-11-20T04:11:31.818Z,94396.81
2022-11-20T04:14:01.160Z,94399.94
2022-11-20T04:16:31.324Z,94387.09
2022-11-20T04:19:03.608Z,94387.63
2022-11-20T04:21:30.547Z,94388.00
2022-11-20T04:23:58.387Z,94400.00
2022-11-20T04:26:27.440Z,94399.44
2022-11-20T04:28:54.246Z,94409.94
2022-11-20T04:31:23.901Z,94410.78
2022-11-20T04:33:51.531Z,94409.22
2022-11-20T04:36:28.328Z,94413.25
2022-11-20T04:39:00.635Z,94416.28
2022-11-20T04:41:33.760Z,94413.00
2022-11-20T04:44:05.437Z,94410.34
2022-11-20T04:46:38.511Z,94410.88
2022-11-20T04:49:06.225Z,94400.28
2022-11-20T04:51:33.837Z,94385.41
2022-11-20T04:54:00.741Z,94382.22
2022-11-20T04:56:27.560Z,94378.28
2022-11-20T04:58:54.554Z,94395.22
2022-11-20T05:01:25.390Z,94380.19
2022-11-20T05:03:53.521Z,94374.19
2022-11-20T05:06:22.548Z,94374.53
2022-11-20T05:08:50.194Z,94364.78
2022-11-20T05:11:20.010Z,94372.34
2022-11-20T05:13:48.602Z,94379.91
2022-11-20T05:16:18.486Z,94380.88
2022-11-20T05:18:46.225Z,94371.91
2022-11-20T05:21:13.838Z,94363.78
2022-11-20T05:23:41.919Z,94368.00
2022-11-20T05:26:13.637Z,94361.31
2022-11-20T05:28:40.589Z,94343.88
2022-11-20T05:31:16.142Z,94343.50
2022-11-20T05:33:44.704Z,94349.09
2022-11-20T05:36:13.162Z,94345.09
2022-11-20T05:38:40.410Z,94365.94
2022-11-20T05:41:17.985Z,94373.16
2022-11-20T05:43:46.892Z,94370.41
2022-11-20T05:46:32.074Z,94360.28
2022-11-20T05:48:59.475Z,94355.72
2022-11-20T05:51:27.263Z,94352.31
2022-11-20T05:53:54.299Z,94356.84
2022-11-20T05:56:22.713Z,94354.84
2022-11-20T05:58:50.509Z,94373.91
2022-11-20T06:01:26.679Z,94376.69
2022-11-20T06:03:55.317Z,94375.28
2022-11-20T06:06:22.852Z,94360.53
2022-11-20T06:08:49.855Z,94359.19
2022-11-20T06:11:17.509Z,94364.69
2022-11-20T06:13:44.383Z,94369.00
2022-11-20T06:16:14.334Z,94402.59
2022-11-20T06:18:41.278Z,94367.50
2022-11-20T06:21:11.833Z,94376.34
2022-11-20T06:23:39.013Z,94382.34
2022-11-20T06:26:08.715Z,94387.03
2022-11-20T06:28:36.098Z,94393.84
2022-11-20T06:31:04.092Z,94395.44
2022-11-20T06:33:30.854Z,94404.13
2022-11-20T06:36:05.696Z,94396.50
2022-11-20T06:38:35.900Z,94384.00
2022-11-20T06:41:03.927Z,94382.25
2022-11-20T06:43:30.981Z,94371.03
2022-11-20T06:45:59.258Z,94379.19
2022-11-20T06:48:29.715Z,94388.50
2022-11-20T06:50:57.964Z,94388.50
2022-11-20T06:53:25.729Z,94394.53
2022-11-20T06:55:53.078Z,94401.22
2022-11-20T06:58:20.258Z,94401.25
2022-11-20T07:00:47.334Z,94402.66
2022-11-20T07:03:15.418Z,94405.22
2022-11-20T07:05:42.376Z,94410.19
2022-11-20T07:08:10.623Z,94405.22
2022-11-20T07:10:37.510Z,94404.72
2022-11-20T07:13:04.626Z,94412.56
2022-11-20T07:15:31.834Z,94409.59
2022-11-20T07:18:01.932Z,94403.09
2022-11-20T07:20:29.253Z,94408.66
2022-11-20T07:22:57.234Z,94407.31
2022-11-20T07:25:27.915Z,94421.56
2022-11-20T07:27:59.577Z,94423.03
2022-11-20T07:30:27.384Z,94415.38
2022-11-20T07:32:56.344Z,94420.25
2022-11-20T07:35:24.253Z,94414.63
2022-11-20T07:37:50.987Z,94414.59
2022-11-20T07:40:18.626Z,94411.50
2022-11-20T07:42:53.637Z,94418.41
2022-11-20T07:45:21.889Z,94417.63
2022-11-20T07:47:49.004Z,94413.41
2022-11-20T07:50:16.584Z,94425.50
2022-11-20T07:52:44.671Z,94421.59
2022-11-20T07:55:12.102Z,94427.84
2022-11-20T07:57:38.999Z,94422.00
2022-11-20T08:00:08.137Z,94425.50
2022-11-20T08:02:42.786Z,94431.78
2022-11-20T08:05:10.941Z,94427.53
2022-11-20T08:07:42.949Z,94411.72
2022-11-20T08:10:11.746Z,94428.81
2022-11-20T08:13:12.935Z,94419.97
2022-11-20T08:15:41.415Z,94415.97
2022-11-20T08:21:04.774Z,94406.38
2022-11-20T08:23:31.969Z,94403.00
2022-11-20T08:25:58.643Z,94408.66
2022-11-20T08:28:25.453Z,94412.38
2022-11-20T08:30:52.188Z,94410.06
2022-11-20T08:33:19.515Z,94408.50
2022-11-20T08:35:46.597Z,94412.78
2022-11-20T08:38:13.424Z,94418.88
2022-11-20T08:40:40.245Z,94416.38
2022-11-20T08:43:06.971Z,94415.06
2022-11-20T08:45:35.218Z,94417.16
2022-11-20T08:48:03.552Z,94420.81
2022-11-20T08:50:33.360Z,94434.34
2022-11-20T08:53:06.834Z,94452.44
2022-11-20T08:55:33.977Z,94464.53
2022-11-20T08:58:05.518Z,94473.34
2022-11-20T09:00:34.481Z,94469.34
2022-11-20T09:03:02.170Z,94449.63
2022-11-20T09:05:29.934Z,94459.16
2022-11-20T09:08:00.300Z,94452.28
2022-11-20T09:10:29.970Z,94454.41
2022-11-20T09:12:57.233Z,94452.78
2022-11-20T09:15:25.075Z,94467.53
2022-11-20T09:17:53.256Z,94479.09
2022-11-20T09:20:20.520Z,94480.44
2022-11-20T09:22:47.705Z,94475.13
2022-11-20T09:25:14.414Z,94457.78
2022-11-20T09:27:44.612Z,94481.50
2022-11-20T09:30:12.215Z,94488.06
2022-11-20T09:32:42.957Z,94474.41
2022-11-20T09:35:10.323Z,94476.66
2022-11-20T09:37:36.990Z,94460.72
2022-11-20T09:40:04.426Z,94451.81
2022-11-20T09:42:52.786Z,94447.78
2022-11-20T09:45:58.352Z,94440.34
2022-11-20T09:49:19.016Z,94430.72
2022-11-20T09:52:01.976Z,94433.66
2022-11-20T09:54:33.702Z,94417.03
2022-11-20T09:57:17.816Z,94419.03
2022-11-20T10:00:05.817Z,94415.03
2022-11-20T10:03:04.809Z,94416.56
2022-11-20T10:05:40.318Z,94416.19
2022-11-20T10:08:17.119Z,94421.81
2022-11-20T10:11:07.093Z,94417.44
2022-11-20T10:14:08.097Z,94406.84
2022-11-20T10:16:40.588Z,94409.09
2022-11-20T10:19:29.621Z,94397.66
2022-11-20T10:22:35.498Z,94397.28
2022-11-20T10:25:15.107Z,94400.44
2022-11-20T10:28:12.802Z,94392.41
2022-11-20T10:30:44.363Z,94364.84
2022-11-20T10:33:18.756Z,94397.94
2022-11-20T10:36:17.422Z,94384.00
2022-11-20T10:38:50.680Z,94395.19
2022-11-20T10:41:27.209Z,94400.03
2022-11-20T10:43:58.138Z,94390.97
2022-11-20T10:46:26.649Z,94393.69
2022-11-20T10:48:53.389Z,94405.25
2022-11-20T10:51:23.758Z,94416.47
2022-11-20T10:54:29.306Z,94410.34
2022-11-20T10:57:06.395Z,94390.66
2022-11-20T10:59:45.300Z,94409.91
2022-11-20T11:02:23.217Z,94423.47
2022-11-20T11:04:54.366Z,94434.88
2022-11-20T11:07:50.274Z,94426.09
2022-11-20T11:10:27.091Z,94450.91
2022-11-20T11:12:54.046Z,94457.91
2022-11-20T11:15:38.393Z,94465.50
2022-11-20T11:18:05.780Z,94492.56
2022-11-20T11:20:33.423Z,94495.88
2022-11-20T11:23:01.141Z,94473.91
2022-11-20T11:25:34.590Z,94483.25
2022-11-20T11:28:19.869Z,94460.63
2022-11-20T11:30:49.519Z,94468.28
2022-11-20T11:33:30.310Z,94469.03
2022-11-20T11:36:00.530Z,94481.16
2022-11-20T11:38:36.387Z,94482.31
2022-11-20T11:41:05.391Z,94471.97
2022-11-20T11:43:56.117Z,94480.25
2022-11-20T11:46:30.357Z,94471.09
2022-11-20T11:49:01.648Z,94481.06
2022-11-20T11:51:37.880Z,94448.47
2022-11-20T11:54:15.464Z,94459.03
2022-11-20T11:56:42.548Z,94479.38
2022-11-20T11:59:18.195Z,94472.97
2022-11-20T12:01:52.675Z,94468.22
2022-11-20T12:04:47.461Z,94443.16
2022-11-20T12:07:45.972Z,94447.34
2022-11-20T12:10:22.209Z,94450.00
2022-11-20T12:13:16.732Z,94446.91
2022-11-20T12:15:47.340Z,94451.84
2022-11-20T12:18:23.246Z,94456.00
2022-11-20T12:21:11.579Z,94456.72
2022-11-20T12:23:53.332Z,94443.94
2022-11-20T12:26:44.224Z,94457.50
2022-11-20T12:29:14.190Z,94449.88
2022-11-20T12:32:02.390Z,94475.72
2022-11-20T12:34:36.779Z,94476.81
2022-11-20T12:37:12.453Z,94475.78
2022-11-20T12:39:51.575Z,94434.44
2022-11-20T12:43:08.812Z,94426.78
2022-11-20T12:45:55.458Z,94372.38
2022-11-20T12:48:29.590Z,94362.22
2022-11-20T12:51:21.059Z,94374.81
2022-11-20T12:54:02.136Z,94388.22
2022-11-20T12:56:47.842Z,94394.88
2022-11-20T12:59:22.692Z,94393.81
2022-11-20T13:01:56.544Z,94398.72
2022-11-20T13:04:44.716Z,94392.13
2022-11-20T13:07:15.398Z,94381.38
2022-11-20T13:09:46.980Z,94367.88
2022-11-20T13:12:18.200Z,94354.75
2022-11-20T13:14:51.326Z,94326.34
2022-11-20T13:17:36.480Z,94329.22
2022-11-20T13:20:06.790Z,94358.00
2022-11-20T13:22:55.619Z,94392.88
2022-11-20T13:25:27.170Z,94410.34
2022-11-20T13:27:55.271Z,94419.13
2022-11-20T13:30:24.441Z,94344.81
2022-11-20T13:33:06.720Z,94354.16
2022-11-20T13:35:36.232Z,94451.53
2022-11-20T13:38:15.226Z,94463.22
2022-11-20T13:40:52.763Z,94404.97
2022-11-20T13:43:27.802Z,94387.03
2022-11-20T13:46:01.441Z,94418.53
2022-11-20T13:48:33.068Z,94416.19
2022-11-20T13:51:02.896Z,94389.81
2022-11-20T13:53:52.691Z,94407.28
2022-11-20T13:56:32.219Z,94413.81
2022-11-20T13:59:15.108Z,94395.72
2022-11-20T14:01:46.410Z,94428.31
2022-11-20T14:04:30.213Z,94434.91
2022-11-20T14:06:57.842Z,94418.53
2022-11-20T14:09:30.873Z,94428.66
2022-11-20T14:11:58.373Z,94420.41
2022-11-20T14:14:27.134Z,94414.91
2022-11-20T14:17:08.947Z,94394.81
2022-11-20T14:19:38.130Z,94406.03
2022-11-20T14:22:09.431Z,94403.03
2022-11-20T14:24:36.363Z,94405.09
2022-11-20T14:27:03.337Z,94411.66
2022-11-20T14:29:36.159Z,94399.81
2022-11-20T14:32:04.626Z,94399.91
2022-11-20T14:34:36.641Z,94395.59
2022-11-20T14:37:10.413Z,94416.00
2022-11-20T14:39:53.475Z,94432.56
2022-11-20T14:42:26.278Z,94426.16
2022-11-20T14:44:57.099Z,94425.97
2022-11-20T14:47:30.209Z,94429.75
2022-11-20T14:49:58.727Z,94420.72
2022-11-20T14:52:27.585Z,94434.91
2022-11-20T14:54:57.498Z,94426.50
2022-11-20T14:57:30.028Z,94414.00
2022-11-20T15:00:09.483Z,94399.81
2022-11-20T15:02:40.457Z,94417.25
2022-11-20T15:05:07.601Z,94429.25
2022-11-20T15:07:41.227Z,94428.34
2022-11-20T15:10:22.423Z,94432.25
2022-11-20T15:13:01.044Z,94448.72
2022-11-20T15:15:49.027Z,94445.00
2022-11-20T15:18:19.184Z,94430.81
2022-11-20T15:20:46.835Z,94449.09
2022-11-20T15:23:16.459Z,94464.56
2022-11-20T15:25:43.580Z,94461.13
2022-11-20T15:28:21.909Z,94471.53
2022-11-20T15:30:50.611Z,94466.97
2022-11-20T15:33:19.241Z,94475.25
2022-11-20T15:35:46.351Z,94489.28
2022-11-20T15:38:13.310Z,94500.59
2022-11-20T15:40:40.469Z,94511.13
2022-11-20T15:43:13.233Z,94542.81
2022-11-20T15:45:49.281Z,94570.94
2022-11-20T15:48:20.227Z,94555.66
2022-11-20T15:51:04.941Z,94578.66
2022-11-20T15:53:31.922Z,94596.59
2022-11-20T15:55:58.666Z,94575.88
2022-11-20T15:58:25.781Z,94580.69
2022-11-20T16:00:52.461Z,94583.97
2022-11-20T16:03:20.829Z,94592.53
2022-11-20T16:05:47.844Z,94592.91
2022-11-20T16:08:15.231Z,94586.47
2022-11-20T16:10:43.310Z,94574.88
2022-11-20T16:13:34.365Z,94575.75
2022-11-20T16:16:06.408Z,94561.22
2022-11-20T16:18:34.014Z,94563.38
2022-11-20T16:21:01.200Z,94571.91
2022-11-20T16:23:27.981Z,94562.31
2022-11-20T16:25:54.958Z,94562.47
2022-11-20T16:28:21.903Z,94563.81
2022-11-20T16:30:48.607Z,94563.75
2022-11-20T16:33:18.244Z,94560.31
2022-11-20T16:35:45.213Z,94556.53
2022-11-20T16:38:11.921Z,94546.03
2022-11-20T16:40:38.779Z,94543.34
2022-11-20T16:43:11.074Z,94526.97
2022-11-20T16:45:45.743Z,94543.25
2022-11-20T16:48:14.526Z,94536.47
2022-11-20T16:50:47.791Z,94536.03
2022-11-20T16:53:14.649Z,94522.16
2022-11-20T16:55:41.597Z,94512.84
2022-11-20T16:58:09.740Z,94517.06
2022-11-20T17:00:38.542Z,94526.63
2022-11-20T17:03:06.724Z,94541.16
2022-11-20T17:05:34.719Z,94538.66
2022-11-20T17:08:01.813Z,94531.19
2022-11-20T17:10:28.765Z,94521.84
2022-11-20T17:12:55.496Z,94518.66
2022-11-20T17:15:22.425Z,94518.03
2022-11-20T17:17:49.065Z,94513.84
2022-11-20T17:20:15.881Z,94511.69
2022-11-20T17:22:42.711Z,94511.44
2022-11-20T17:25:09.514Z,94525.75
2022-11-20T17:27:36.553Z,94530.69
2022-11-20T17:30:03.610Z,94501.56
2022-11-20T17:32:30.515Z,94481.59
2022-11-20T17:34:58.901Z,94484.59
2022-11-20T17:37:25.752Z,94491.19
2022-11-20T17:39:52.602Z,94497.69
2022-11-20T17:42:29.760Z,94492.97
2022-11-20T17:44:58.890Z,94471.06
2022-11-20T17:47:26.064Z,94453.66
2022-11-20T17:49:53.686Z,94467.28
2022-11-20T17:52:20.532Z,94471.03
2022-11-20T17:54:47.434Z,94462.84
2022-11-20T17:57:33.083Z,94448.31
2022-11-20T17:59:59.971Z,94420.75
2022-11-20T18:02:26.627Z,94406.59
2022-11-20T18:04:53.453Z,94407.09
2022-11-20T18:07:20.306Z,94391.84
2022-11-20T18:09:47.172Z,94388.66
2022-11-20T18:12:13.909Z,94395.84
2022-11-20T18:14:41.838Z,94400.00
2022-11-20T18:17:11.278Z,94399.66
2022-11-20T18:19:47.981Z,94410.34
2022-11-20T18:22:23.493Z,94410.25
2022-11-20T18:24:50.223Z,94388.84
2022-11-20T18:27:20.236Z,94391.38
2022-11-20T18:29:51.728Z,94394.25
2022-11-20T18:32:20.477Z,94390.06
2022-11-20T18:34:47.472Z,94384.84
2022-11-20T18:37:15.581Z,94379.00
2022-11-20T18:39:42.999Z,94377.78
2022-11-20T18:42:31.982Z,94370.75
2022-11-20T18:45:00.289Z,94363.47
2022-11-20T18:47:30.563Z,94373.66
2022-11-20T18:50:02.638Z,94356.19
2022-11-20T18:52:35.563Z,94374.31
2022-11-20T18:55:04.225Z,94370.94
2022-11-20T18:57:31.835Z,94376.34
2022-11-20T19:00:03.626Z,94369.25
2022-11-20T19:02:40.884Z,94372.91
2022-11-20T19:05:13.102Z,94375.75
2022-11-20T19:07:40.211Z,94374.53
2022-11-20T19:10:07.614Z,94384.56
2022-11-20T19:12:34.426Z,94367.22
2022-11-20T19:15:01.413Z,94385.81
2022-11-20T19:17:28.205Z,94377.25
2022-11-20T19:19:55.221Z,94377.78
2022-11-20T19:22:22.466Z,94366.13
2022-11-20T19:24:49.804Z,94345.00
2022-11-20T19:27:16.565Z,94343.38
2022-11-20T19:29:43.373Z,94342.84
2022-11-20T19:32:10.370Z,94352.88
2022-11-20T19:34:37.324Z,94345.97
2022-11-20T19:37:05.145Z,94352.25
2022-11-20T19:39:32.025Z,94343.28
2022-11-20T19:41:58.912Z,94334.75
2022-11-20T19:44:25.762Z,94333.53
2022-11-20T19:46:52.626Z,94314.22
2022-11-20T19:49:19.462Z,94297.69
2022-11-20T19:51:48.680Z,94292.31
2022-11-20T19:54:16.911Z,94311.66
2022-11-20T19:56:45.266Z,94292.09
2022-11-20T19:59:12.454Z,94308.34
2022-11-20T20:01:39.636Z,94313.72
2022-11-20T20:04:07.116Z,94300.69
2022-11-20T20:06:36.660Z,94289.56
2022-11-20T20:09:06.623Z,94262.88
2022-11-20T20:11:34.656Z,94264.50
2022-11-20T20:14:06.493Z,94270.81
2022-11-20T20:16:35.406Z,94260.31
2022-11-20T20:19:04.068Z,94265.50
2022-11-20T20:21:32.680Z,94272.84
2022-11-20T20:23:59.859Z,94259.69
2022-11-20T20:26:29.495Z,94271.63
2022-11-20T20:28:56.443Z,94262.78
2022-11-20T20:31:25.843Z,94266.16
2022-11-20T20:33:53.275Z,94277.38
2022-11-20T20:36:22.068Z,94262.13
2022-11-20T20:38:52.938Z,94256.97
2022-11-20T20:41:20.992Z,94267.97
2022-11-20T20:44:06.230Z,94244.94
2022-11-20T20:46:33.720Z,94262.63
2022-11-20T20:49:00.609Z,94267.84
2022-11-20T20:51:27.636Z,94284.38
2022-11-20T20:53:54.879Z,94296.13
2022-11-20T20:56:21.731Z,94290.59
2022-11-20T20:58:48.955Z,94289.19
2022-11-20T21:01:18.812Z,94270.44
2022-11-20T21:03:46.101Z,94250.34
2022-11-20T21:06:13.606Z,94246.06
2022-11-20T21:08:42.096Z,94258.31
2022-11-20T21:11:16.245Z,94256.03
2022-11-20T21:13:45.222Z,94247.88
2022-11-20T21:16:14.029Z,94244.59
2022-11-20T21:18:41.485Z,94245.81
2022-11-20T21:21:31.084Z,94229.34
2022-11-20T21:23:58.483Z,94225.94
2022-11-20T21:26:25.294Z,94201.16
2022-11-20T21:29:11.132Z,94190.69
2022-11-20T21:31:39.224Z,94191.59
2022-11-20T21:34:13.780Z,94184.03
2022-11-20T21:36:42.619Z,94196.78
2022-11-20T21:39:11.579Z,94192.38
2022-11-20T21:41:40.573Z,94191.06
2022-11-20T21:47:01.029Z,94183.53
2022-11-20T21:49:27.893Z,94175.84
2022-11-20T21:51:54.703Z,94163.94
2022-11-20T21:54:21.711Z,94149.78
2022-11-20T21:56:48.701Z,94133.94
2022-11-20T21:59:15.544Z,94136.41
2022-11-20T22:01:42.633Z,94103.59
2022-11-20T22:04:13.196Z,94085.31
2022-11-20T22:06:40.000Z,94085.81
2022-11-20T22:09:06.727Z,94083.19
2022-11-20T22:11:33.460Z,94088.31
2022-11-20T22:14:18.949Z,94083.59
2022-11-20T22:16:46.125Z,94075.78
2022-11-20T22:19:18.039Z,94063.06
2022-11-20T22:21:45.130Z,94049.22
2022-11-20T22:24:17.101Z,94040.19
2022-11-20T22:26:44.303Z,94033.19
2022-11-20T22:29:20.995Z,94017.66
2022-11-20T22:31:48.016Z,94007.84
2022-11-20T22:34:15.414Z,94028.44
2022-11-20T22:36:42.487Z,94020.63
2022-11-20T22:39:09.822Z,94016.34
2022-11-20T22:41:36.709Z,93994.91
2022-11-20T22:44:06.138Z,93990.09
2022-11-20T22:46:35.276Z,93989.16
2022-11-20T22:49:04.535Z,93979.09
2022-11-20T22:51:33.530Z,93951.75
2022-11-20T22:54:01.118Z,93930.31
2022-11-20T22:56:27.895Z,93917.72
2022-11-20T22:58:54.865Z,93909.34
2022-11-20T23:01:33.106Z,93903.13
2022-11-20T23:04:02.580Z,93894.88
2022-11-20T23:06:30.206Z,93902.50
2022-11-20T23:08:57.261Z,93890.06
2022-11-20T23:11:26.862Z,93888.66
2022-11-20T23:13:58.976Z,93877.63
2022-11-20T23:16:27.969Z,93885.28
2022-11-20T23:19:02.737Z,93890.13
2022-11-20T23:21:30.059Z,93881.88
2022-11-20T23:23:58.334Z,93854.47
2022-11-20T23:26:28.104Z,93859.72
2022-11-20T23:28:56.597Z,93838.97
2022-11-20T23:31:24.358Z,93853.59
2022-11-20T23:33:51.658Z,93850.34
2022-11-20T23:36:18.545Z,93825.31
2022-11-20T23:38:45.270Z,93803.69
2022-11-20T23:41:12.712Z,93806.81
2022-11-20T23:43:39.914Z,93807.88
2022-11-20T23:46:07.460Z,93817.81
2022-11-20T23:48:36.324Z,93826.53
2022-11-20T23:51:05.040Z,93828.88
2022-11-20T23:53:33.586Z,93817.84
2022-11-20T23:56:03.110Z,93814.56
2022-11-20T23:58:33.149Z,93825.22
